Saturday, December 15, 2018, 2:07 PM EST
Back to Local

KBML, Berlin Municipal Airport

Location: Milan, NH, United States Lat: 44.583
Local Time: 2:07 PM EST (19:07 GMT) Lon: -71.183
Time Zone: US/Eastern Elev: 1158 ft

Show me the last for .
Show Decoded

2018-12-15 13:52 METAR KBML 151852Z AUTO VRB03KT 10SM BKN036 05/M03 A3015 RMK AO2 SLP223
                 T00501028 =
2018-12-15 12:52 METAR KBML 151752Z AUTO 30006KT 10SM BKN036 05/M03 A3013 RMK AO2 SLP215
                 T00501033 10050 20000 58010 =
2018-12-15 11:52 METAR KBML 151652Z AUTO VRB05KT 10SM SCT034 05/M02 A3015 RMK AO2 SLP221
                 T00501022 =
2018-12-15 11:10 METAR KBML 151610Z AUTO 32008G15KT 10SM OVC031 03/M02 A3017 RMK AO2 T00331022 =
2018-12-15 10:52 METAR KBML 151552Z AUTO 32010KT 10SM BKN027 OVC033 03/M02 A3017 RMK AO2 SLP229
                 T00331017 =
2018-12-15 09:52 METAR KBML 151452Z AUTO 28005KT 10SM OVC027 03/M01 A3016 RMK AO2 SLP227
                 T00331006 51023 =
2018-12-15 08:52 METAR KBML 151352Z AUTO 33006KT 10SM OVC027 04/M01 A3014 RMK AO2 SLP219
                 T00441006 =
2018-12-15 07:59 METAR KBML 151259Z AUTO VRB04KT 10SM BKN026 OVC032 04/01 A3012 RMK AO2 T00390011
                 =
2018-12-15 07:52 METAR KBML 151252Z AUTO 31003KT 10SM SCT026 OVC032 04/01 A3011 RMK AO2 SLP210
                 T00390006 =
2018-12-15 07:45 METAR KBML 151245Z AUTO 30004KT 9SM BKN029 BKN034 02/00 A3011 RMK AO2 T00170000
                 =
2018-12-15 06:52 METAR KBML 151152Z AUTO VRB03KT 7SM FEW029 FEW035 00/M01 A3009 RMK AO2 SLP205
                 70001 T00001006 10022 20000 53016 =
2018-12-15 06:36 METAR KBML 151136Z AUTO 00000KT 8SM SCT027 02/01 A3008 RMK AO2 T00170006 =
2018-12-15 05:52 METAR KBML 151052Z AUTO 00000KT 7SM OVC023 02/01 A3007 RMK AO2 SLP197 T00170011
                 =
2018-12-15 04:52 METAR KBML 150952Z AUTO 00000KT 7SM OVC022 02/01 A3005 RMK AO2 SLP191 T00170011
                 =
2018-12-15 03:52 METAR KBML 150852Z AUTO 35003KT 7SM OVC027 02/01 A3004 RMK AO2 SLP187 T00170006
                 58002 =
2018-12-15 02:52 METAR KBML 150752Z AUTO 29003KT 7SM OVC025 01/01 A3004 RMK AO2 SLP188 T00110006
                 =
2018-12-15 01:52 METAR KBML 150652Z AUTO 34003KT 7SM BKN025 OVC041 01/01 A3005 RMK AO2 SLP189
                 T00110006 =
2018-12-15 01:40 METAR KBML 150640Z AUTO 06003KT 7SM BKN027 BKN032 OVC041 02/01 A3005 RMK AO2
                 T00170006 =
2018-12-15 00:52 METAR KBML 150552Z AUTO 31004KT 6SM BR FEW029 BKN045 OVC050 01/00 A3005 RMK AO2
                 SLP190 60001 I6002 T00110000 10017 21011 56023 =
2018-12-14 23:52 METAR KBML 150452Z AUTO 35003KT 9SM OVC037 01/01 A3007 RMK AO2 FZRAE0354 SLP197
                 P0000 I1001 T00110006 400171122 =
2018-12-14 23:00 METAR KBML 150400Z AUTO VRB03KT 6SM BR FEW029 BKN046 OVC080 01/M01 A3009 RMK AO2
                 FZRAE0354 P0000 I1000 T00061006 =
2018-12-14 22:52 METAR KBML 150352Z AUTO 00000KT 6SM -FZRA BR SCT029 BKN037 OVC080 01/M01 A3009
                 RMK AO2 UPE09FZRAB09 SLP206 P0001 I1001 T00061006 =
2018-12-14 22:15 METAR KBML 150315Z AUTO 00000KT 6SM -FZRA BR BKN030 BKN035 OVC055 00/M02 A3012
                 RMK AO2 UPE09FZRAB09 P0001 I1001 T00001017 =
2018-12-14 21:52 METAR KBML 150252Z AUTO 00000KT 9SM UP BKN031 BKN038 OVC048 00/M02 A3012 RMK AO2
                 SLP217 P0000 60000 I1000 I3000 T00001017 56019 =
2018-12-14 20:52 METAR KBML 150152Z AUTO 00000KT 10SM UP BKN029 BKN035 OVC060 M01/M03 A3014 RMK
                 AO2 UPB19 SLP225 P0000 T10061028 =
2018-12-14 19:52 METAR KBML 150052Z AUTO 21003KT 10SM OVC029 00/M03 A3018 RMK AO2 SLP237
                 T00001033 =
2018-12-14 18:52 METAR KBML 142352Z AUTO 00000KT 10SM OVC031 M01/M04 A3020 RMK AO2 SLP247
                 T10111044 11006 21022 57022 =
2018-12-14 18:22 METAR KBML 142322Z AUTO 00000KT 10SM OVC030 M01/M05 A3021 RMK AO2 T10061050 =
2018-12-14 17:52 METAR KBML 142252Z AUTO 00000KT 10SM OVC028 M01/M05 A3023 RMK AO2 SLP255
                 T10111050 =
2018-12-14 16:52 METAR KBML 142152Z AUTO 00000KT 10SM OVC026 M01/M05 A3024 RMK AO2 SLP262
                 T10111050 =
2018-12-14 15:52 METAR KBML 142052Z AUTO 00000KT 10SM OVC027 M01/M06 A3027 RMK AO2 SLP271
                 T10111056 56014 =
2018-12-14 14:52 METAR KBML 141952Z AUTO 00000KT 10SM OVC028 M01/M06 A3027 RMK AO2 SLP270
                 T10111061 =
2018-12-14 14:21 METAR KBML 141921Z AUTO 00000KT 10SM OVC029 M01/M06 A3027 RMK AO2 T10111061 =

Support USWX by starting your Amazon purchase here.